Time;durP1;ratioP1;P1;durP2;ratioP2;P2;SDS_P1;SDS_P2;PMS_P1;PMS_P2;Temp;Humidity;BMP_temperature;BMP_pressure;BME280_temperature;BME280_humidity;BME280_pressure;Samples;Min_cycle;Max_cycle;Signal;HPM_P1;HPM_P2
2021/08/07 00:00:04;;;;;;;4.05;2.03;;;;;;;16.40;51.40;99793.47;5069729;28;20031;-76
2021/08/07 00:02:29;;;;;;;1.52;1.00;;;;;;;16.32;51.51;99785.06;5069710;28;20029;-75
2021/08/07 00:04:54;;;;;;;1.73;1.00;;;;;;;16.27;51.80;99790.50;5069545;28;20056;-75
2021/08/07 00:07:20;;;;;;;1.70;1.02;;;;;;;16.23;52.03;99791.53;5068248;28;20408;-75
2021/08/07 00:09:45;;;;;;;2.15;1.27;;;;;;;16.23;52.15;99781.06;5069694;28;20096;-76
2021/08/07 00:12:11;;;;;;;4.20;1.17;;;;;;;16.22;52.30;99784.59;5069626;28;20291;-77
2021/08/07 00:14:36;;;;;;;2.28;1.00;;;;;;;16.25;52.40;99783.63;5069402;28;20024;-75
2021/08/07 00:17:02;;;;;;;3.00;1.30;;;;;;;16.17;52.68;99778.69;5068246;28;20021;-75
2021/08/07 00:19:27;;;;;;;4.15;1.17;;;;;;;16.14;52.73;99777.06;5069564;28;20024;-75
2021/08/07 00:21:53;;;;;;;1.80;1.17;;;;;;;16.14;52.83;99786.69;5068356;28;20079;-76
2021/08/07 00:24:21;;;;;;;1.55;1.00;;;;;;;16.10;53.08;99785.97;5069536;28;20136;-75
2021/08/07 00:26:47;;;;;;;3.38;1.20;;;;;;;16.12;53.20;99778.06;5068214;28;20025;-76
2021/08/07 00:29:12;;;;;;;1.65;1.13;;;;;;;16.07;53.28;99780.88;5068409;28;20025;-78
2021/08/07 00:31:37;;;;;;;1.83;1.00;;;;;;;16.04;53.37;99784.44;5069618;28;20082;-76
2021/08/07 00:34:03;;;;;;;2.97;1.50;;;;;;;16.09;53.36;99782.50;5069457;28;20135;-76
2021/08/07 00:36:28;;;;;;;2.40;1.50;;;;;;;16.07;53.59;99786.13;5068091;28;20071;-75
2021/08/07 00:38:54;;;;;;;2.08;1.30;;;;;;;16.12;53.40;99780.69;5069368;28;20055;-75
2021/08/07 00:41:19;;;;;;;2.75;1.20;;;;;;;16.09;53.82;99784.25;5067846;28;20029;-76
2021/08/07 00:43:44;;;;;;;1.20;1.00;;;;;;;16.05;54.08;99772.22;5067869;28;20032;-76
2021/08/07 00:46:10;;;;;;;2.47;1.20;;;;;;;16.02;54.24;99765.38;5069425;28;20028;-75
2021/08/07 00:48:35;;;;;;;2.88;1.33;;;;;;;15.98;54.52;99771.63;5068077;28;20029;-76
2021/08/07 00:51:00;;;;;;;2.92;1.13;;;;;;;16.01;54.37;99763.63;5068008;28;20025;-78
2021/08/07 00:53:26;;;;;;;1.45;0.90;;;;;;;15.99;54.96;99762.84;5069268;28;20021;-77
2021/08/07 00:55:52;;;;;;;2.63;1.38;;;;;;;15.94;55.14;99778.72;5067201;28;20045;-75
2021/08/07 00:58:17;;;;;;;1.98;1.20;;;;;;;15.94;55.39;99768.25;5068071;28;20037;-77
2021/08/07 01:00:42;;;;;;;2.15;1.13;;;;;;;15.93;55.28;99770.91;5068999;28;20025;-74
2021/08/07 01:03:45;;;;;;;1.92;1.10;;;;;;;15.94;55.55;99763.00;5064036;28;20031;-76
2021/08/07 01:06:33;;;;;;;1.38;1.00;;;;;;;15.88;55.91;99754.56;5064797;28;20066;-76
2021/08/07 01:09:20;;;;;;;2.50;1.23;;;;;;;15.83;56.18;99752.97;5066024;28;20035;-77
2021/08/07 01:11:54;;;;;;;3.83;1.48;;;;;;;15.77;56.33;99736.69;5064350;28;20055;-77
2021/08/07 01:14:24;;;;;;;1.73;1.30;;;;;;;15.71;56.39;99741.25;5064407;28;20108;-77
2021/08/07 01:16:52;;;;;;;1.70;1.00;;;;;;;15.68;56.80;99730.06;5064732;28;20477;-77
2021/08/07 01:19:18;;;;;;;2.10;1.10;;;;;;;15.70;56.91;99734.31;5098283;28;20051;-76
2021/08/07 01:21:56;;;;;;;2.20;1.40;;;;;;;15.67;57.21;99736.22;5064277;28;20025;-76
2021/08/07 01:24:58;;;;;;;2.63;1.15;;;;;;;15.69;57.26;99740.47;5064381;28;20392;-76
2021/08/07 01:27:39;;;;;;;2.45;1.50;;;;;;;15.49;57.64;99734.25;5063897;28;20090;-77
2021/08/07 01:30:08;;;;;;;3.20;1.50;;;;;;;15.48;57.96;99736.94;5065488;28;20117;-75
2021/08/07 01:32:34;;;;;;;2.13;1.58;;;;;;;15.50;57.92;99735.13;5065593;28;20076;-75
2021/08/07 01:35:01;;;;;;;1.48;1.10;;;;;;;15.54;58.25;99731.47;5064116;28;20301;-77
2021/08/07 01:37:27;;;;;;;1.70;1.30;;;;;;;15.47;58.21;99740.47;5064078;28;20035;-74
2021/08/07 01:39:55;;;;;;;2.35;1.50;;;;;;;15.49;58.34;99736.88;5065617;28;20052;-75
2021/08/07 01:42:22;;;;;;;2.13;1.40;;;;;;;15.43;58.75;99739.72;5065364;28;20056;-75
2021/08/07 01:44:47;;;;;;;2.45;1.40;;;;;;;15.35;58.73;99737.44;5063926;28;20040;-78
2021/08/07 01:47:41;;;;;;;2.63;1.60;;;;;;;15.35;58.95;99731.34;5065302;28;20040;-78
2021/08/07 01:50:18;;;;;;;3.55;1.38;;;;;;;15.33;58.78;99725.31;5065499;28;20025;-75
2021/08/07 01:52:46;;;;;;;3.42;1.55;;;;;;;15.24;58.97;99724.78;5065146;28;20059;-75
2021/08/07 01:55:17;;;;;;;2.13;1.38;;;;;;;15.27;59.07;99722.97;5065031;28;20347;-76
2021/08/07 01:57:53;;;;;;;1.70;1.02;;;;;;;15.23;59.12;99717.00;5065272;28;20032;-76
2021/08/07 02:00:20;;;;;;;3.38;1.85;;;;;;;15.19;59.37;99723.25;5065171;28;20043;-75
2021/08/07 02:02:46;;;;;;;2.97;1.50;;;;;;;15.08;59.79;99721.06;5064917;28;20052;-75
2021/08/07 02:05:12;;;;;;;1.77;1.33;;;;;;;15.11;60.12;99721.78;5063700;28;20116;-76
2021/08/07 02:07:38;;;;;;;2.28;1.15;;;;;;;15.07;60.12;99730.66;5065245;28;20326;-76
2021/08/07 02:10:04;;;;;;;2.08;1.38;;;;;;;15.03;60.17;99718.59;5065179;28;20044;-76
2021/08/07 02:12:30;;;;;;;1.98;1.40;;;;;;;15.07;60.50;99722.81;5065023;28;20067;-76
2021/08/07 02:14:57;;;;;;;1.90;1.45;;;;;;;15.09;60.70;99718.38;5064905;28;20045;-76
2021/08/07 02:17:23;;;;;;;2.10;1.77;;;;;;;15.04;60.61;99722.06;5063661;28;20028;-76
2021/08/07 02:19:49;;;;;;;2.75;1.85;;;;;;;15.07;60.74;99721.94;5064730;28;20032;-76
2021/08/07 02:22:18;;;;;;;2.97;1.45;;;;;;;15.04;60.60;99716.84;5064669;28;20046;-76
2021/08/07 02:24:44;;;;;;;3.40;1.85;;;;;;;15.01;60.80;99711.72;5064496;28;20017;-76
2021/08/07 02:27:10;;;;;;;2.03;1.25;;;;;;;15.00;61.10;99705.66;5064573;28;20102;-77
2021/08/07 02:29:36;;;;;;;2.63;1.60;;;;;;;15.01;61.44;99709.13;5064436;28;20025;-76
2021/08/07 02:32:03;;;;;;;2.60;1.52;;;;;;;15.01;61.41;99712.59;5064511;28;20029;-76
2021/08/07 02:34:29;;;;;;;2.92;1.50;;;;;;;15.02;61.70;99702.97;5063061;28;20085;-76
2021/08/07 02:36:55;;;;;;;4.00;1.50;;;;;;;14.98;61.85;99710.94;5062989;28;20028;-76
2021/08/07 02:39:22;;;;;;;2.17;1.40;;;;;;;14.96;62.04;99710.16;5063913;28;20094;-76
2021/08/07 02:41:48;;;;;;;1.90;1.50;;;;;;;14.90;62.16;99704.31;5063928;28;20044;-77
2021/08/07 02:44:14;;;;;;;3.40;1.67;;;;;;;14.90;62.18;99699.94;5064098;28;20020;-76
2021/08/07 02:46:40;;;;;;;2.97;1.38;;;;;;;14.86;62.46;99700.94;5062993;28;20028;-76
2021/08/07 02:49:06;;;;;;;3.42;1.50;;;;;;;14.83;62.58;99699.31;5062822;28;20021;-76
2021/08/07 02:51:32;;;;;;;2.65;1.55;;;;;;;14.86;62.75;99703.56;5062818;28;20024;-76
2021/08/07 02:53:59;;;;;;;2.80;1.52;;;;;;;14.81;62.93;99690.69;5063878;28;20032;-75
2021/08/07 02:56:25;;;;;;;2.88;1.60;;;;;;;14.63;62.85;99661.69;5062519;28;20024;-76
2021/08/07 02:58:50;;;;;;;2.38;1.40;;;;;;;14.80;63.23;99699.44;5062809;28;20017;-77
2021/08/07 03:01:16;;;;;;;3.17;1.60;;;;;;;14.82;63.41;99687.16;5062321;28;20021;-78
2021/08/07 03:03:41;;;;;;;1.60;1.20;;;;;;;14.75;63.35;99688.25;5062600;28;20039;-76
2021/08/07 03:06:07;;;;;;;2.15;1.60;;;;;;;14.72;63.41;99686.63;5063778;28;20389;-76
2021/08/07 03:08:32;;;;;;;3.63;2.05;;;;;;;14.75;63.68;99689.13;5062799;28;20048;-76
2021/08/07 03:10:57;;;;;;;4.78;1.65;;;;;;;14.73;63.78;99679.63;5062409;28;20051;-75
2021/08/07 03:13:23;;;;;;;2.22;1.77;;;;;;;14.73;63.77;99682.22;5062372;28;20017;-76
2021/08/07 03:15:48;;;;;;;3.53;1.50;;;;;;;14.70;63.95;99684.97;5063690;28;20021;-77
2021/08/07 03:18:14;;;;;;;2.30;1.63;;;;;;;14.63;63.94;99677.34;5065071;28;20033;-76
2021/08/07 03:20:39;;;;;;;2.58;1.60;;;;;;;14.62;64.22;99680.88;5068937;28;20032;-76
2021/08/07 03:23:07;;;;;;;2.03;1.50;;;;;;;14.65;64.42;99679.91;5068548;28;20282;-76
2021/08/07 03:25:34;;;;;;;4.63;1.63;;;;;;;14.60;64.48;99677.47;5064167;28;20025;-77
2021/08/07 03:28:01;;;;;;;3.97;1.77;;;;;;;14.62;64.45;99680.03;5064100;28;20039;-76
2021/08/07 03:30:27;;;;;;;2.13;1.58;;;;;;;14.62;64.70;99670.44;5063054;28;20420;-78
2021/08/07 03:32:53;;;;;;;2.03;1.60;;;;;;;14.49;64.62;99649.13;5064042;28;20424;-79
2021/08/07 03:35:18;;;;;;;2.15;1.50;;;;;;;14.67;64.73;99672.00;5062961;28;20029;-77
2021/08/07 03:37:44;;;;;;;2.17;1.73;;;;;;;14.65;64.83;99663.41;5061930;28;20021;-76
2021/08/07 03:40:11;;;;;;;4.53;1.95;;;;;;;14.78;64.79;99671.59;5063389;28;20547;-79
2021/08/07 03:42:37;;;;;;;2.70;1.80;;;;;;;14.77;64.61;99655.09;5067734;28;20024;-77
2021/08/07 03:45:04;;;;;;;2.35;1.75;;;;;;;14.74;64.90;99652.59;5070122;28;20017;-76
2021/08/07 03:47:30;;;;;;;2.78;1.40;;;;;;;14.84;64.75;99659.19;5070811;28;20027;-76
2021/08/07 03:49:55;;;;;;;3.65;1.90;;;;;;;14.66;64.75;99638.97;5071313;28;20021;-78
2021/08/07 03:52:20;;;;;;;3.50;2.33;;;;;;;14.88;64.73;99665.16;5067458;28;20027;-75
2021/08/07 03:54:46;;;;;;;2.63;1.77;;;;;;;14.87;64.91;99661.69;5066067;28;20035;-75
2021/08/07 03:57:11;;;;;;;2.67;1.70;;;;;;;14.84;64.79;99648.75;5063858;28;20110;-77
2021/08/07 03:59:36;;;;;;;2.92;1.70;;;;;;;14.94;64.82;99664.06;5062996;28;20033;-76
2021/08/07 04:02:02;;;;;;;2.13;1.70;;;;;;;14.87;64.72;99653.03;5063378;28;20074;-78
2021/08/07 04:04:27;;;;;;;4.53;1.67;;;;;;;14.91;64.92;99648.50;5063171;28;20438;-77
2021/08/07 04:06:53;;;;;;;4.47;1.90;;;;;;;14.94;64.69;99651.00;5061795;28;20171;-77
2021/08/07 04:09:18;;;;;;;4.05;1.77;;;;;;;14.97;64.82;99650.88;5061758;28;20035;-77
2021/08/07 04:11:43;;;;;;;2.10;1.60;;;;;;;15.02;64.65;99662.00;5061775;28;20028;-76
2021/08/07 04:14:09;;;;;;;2.67;1.58;;;;;;;14.95;64.62;99652.72;5062988;28;20385;-76
2021/08/07 04:16:35;;;;;;;2.25;1.67;;;;;;;14.96;64.64;99649.19;5063085;28;20017;-77
2021/08/07 04:19:00;;;;;;;2.90;1.92;;;;;;;15.06;64.81;99653.16;5062803;28;20029;-76
2021/08/07 04:21:25;;;;;;;2.78;1.88;;;;;;;15.00;64.58;99640.31;5062860;28;20445;-77
2021/08/07 04:23:51;;;;;;;2.50;1.70;;;;;;;14.99;64.62;99647.31;5062947;28;20088;-78
2021/08/07 04:26:16;;;;;;;2.47;1.83;;;;;;;14.97;64.64;99643.03;5061501;28;20017;-77
2021/08/07 04:28:42;;;;;;;2.55;1.85;;;;;;;14.91;64.58;99638.91;5063082;28;20048;-77
2021/08/07 04:31:07;;;;;;;3.75;1.67;;;;;;;14.92;64.50;99638.00;5061540;28;20021;-75
2021/08/07 04:33:33;;;;;;;5.00;1.95;;;;;;;14.94;64.55;99632.69;5061463;28;20025;-76
2021/08/07 04:36:04;;;;;;;4.05;1.80;;;;;;;14.92;64.45;99632.75;5061411;28;20023;-77
2021/08/07 04:38:29;;;;;;;3.60;1.58;;;;;;;14.95;64.50;99631.81;5065489;28;20053;-76
2021/08/07 04:40:55;;;;;;;2.30;1.80;;;;;;;14.93;64.15;99634.50;5066552;28;20032;-76
2021/08/07 04:43:20;;;;;;;4.65;2.00;;;;;;;14.94;64.28;99630.09;5066646;28;20461;-76
2021/08/07 04:45:46;;;;;;;3.30;1.80;;;;;;;14.88;64.24;99628.59;5065384;28;20499;-76
2021/08/07 04:48:11;;;;;;;2.10;1.70;;;;;;;14.87;64.52;99630.34;5066608;28;20025;-75
2021/08/07 04:50:37;;;;;;;2.83;1.70;;;;;;;14.82;64.43;99620.97;5066317;28;20056;-76
2021/08/07 04:53:04;;;;;;;2.72;1.65;;;;;;;14.87;64.39;99625.09;5066248;28;20023;-76
2021/08/07 04:55:29;;;;;;;3.95;2.08;;;;;;;14.87;64.42;99622.50;5064836;28;20039;-76
2021/08/07 04:57:54;;;;;;;3.22;1.83;;;;;;;14.83;64.32;99623.53;5065008;28;20052;-75
2021/08/07 05:00:21;;;;;;;2.83;1.70;;;;;;;14.86;64.46;99620.81;5066271;28;20028;-75
2021/08/07 05:02:46;;;;;;;2.50;1.55;;;;;;;14.86;64.33;99618.19;5066220;28;20031;-76
2021/08/07 05:05:13;;;;;;;2.88;1.60;;;;;;;14.89;64.46;99624.22;5066126;28;20052;-76
2021/08/07 05:07:39;;;;;;;6.78;1.80;;;;;;;14.83;64.57;99602.63;5066105;28;20027;-75
2021/08/07 05:10:07;;;;;;;5.20;2.10;;;;;;;14.91;64.36;99606.69;5066073;28;20079;-76
2021/08/07 05:12:32;;;;;;;2.13;1.65;;;;;;;14.95;64.32;99614.34;5064673;28;20114;-76
2021/08/07 05:14:58;;;;;;;2.60;1.70;;;;;;;14.97;64.36;99614.28;5066082;28;20025;-77
2021/08/07 05:17:24;;;;;;;3.05;1.95;;;;;;;15.00;64.44;99619.38;5064583;28;20045;-76
2021/08/07 05:19:51;;;;;;;3.35;1.95;;;;;;;15.05;64.30;99622.69;5065941;28;20025;-76
2021/08/07 05:22:17;;;;;;;3.92;1.70;;;;;;;15.04;64.18;99604.44;5065842;28;20102;-74
2021/08/07 05:24:42;;;;;;;3.80;2.17;;;;;;;15.15;64.17;99614.47;5064279;28;20492;-76
2021/08/07 05:27:08;;;;;;;5.05;1.67;;;;;;;15.22;63.87;99605.47;5065708;28;20071;-76
2021/08/07 05:29:34;;;;;;;3.38;1.80;;;;;;;15.27;64.08;99602.69;5064489;28;20033;-77
2021/08/07 05:31:59;;;;;;;3.05;1.90;;;;;;;15.41;63.84;99607.34;5065616;28;20033;-75
2021/08/07 05:34:24;;;;;;;3.17;1.90;;;;;;;15.46;63.56;99605.38;5065530;28;20080;-76
2021/08/07 05:36:50;;;;;;;3.40;1.50;;;;;;;15.54;63.41;99607.69;5064166;28;20017;-76
2021/08/07 05:39:16;;;;;;;2.53;1.40;;;;;;;15.65;63.38;99612.44;5065162;28;20057;-76
2021/08/07 05:41:42;;;;;;;3.33;1.70;;;;;;;15.69;63.16;99603.53;5065502;28;20317;-76
2021/08/07 05:44:07;;;;;;;2.20;1.42;;;;;;;15.84;63.11;99604.66;5064282;28;20032;-75
2021/08/07 05:46:32;;;;;;;3.55;1.40;;;;;;;16.05;62.79;99605.53;5063932;28;20013;-75
2021/08/07 05:48:58;;;;;;;2.10;1.58;;;;;;;16.15;62.48;99586.78;5063429;28;20032;-75
2021/08/07 05:51:23;;;;;;;2.97;1.55;;;;;;;16.26;62.25;99592.41;5063982;28;20100;-76
2021/08/07 05:53:49;;;;;;;3.40;1.67;;;;;;;16.45;62.12;99587.13;5063807;28;20029;-76
2021/08/07 05:56:14;;;;;;;3.17;1.52;;;;;;;16.65;61.92;99581.88;5063498;28;20021;-75
2021/08/07 05:58:40;;;;;;;2.72;1.50;;;;;;;16.90;61.38;99589.44;5065303;28;20024;-75
2021/08/07 06:01:06;;;;;;;3.10;1.45;;;;;;;17.12;60.70;99590.19;5065022;28;20063;-75
2021/08/07 06:03:32;;;;;;;2.47;1.60;;;;;;;17.27;60.31;99591.22;5064984;28;20130;-75
2021/08/07 06:05:58;;;;;;;2.30;1.40;;;;;;;17.40;59.93;99584.44;5063678;28;20325;-75
2021/08/07 06:08:23;;;;;;;2.47;1.55;;;;;;;17.55;59.28;99582.81;5065078;28;20017;-76
2021/08/07 06:10:49;;;;;;;3.42;1.60;;;;;;;17.75;58.94;99596.69;5063494;28;20040;-77
2021/08/07 06:13:14;;;;;;;2.85;1.70;;;;;;;17.94;58.90;99577.34;5064827;28;20591;-75
2021/08/07 06:15:40;;;;;;;2.00;1.42;;;;;;;18.42;58.79;99579.22;5064794;28;20028;-76
2021/08/07 06:18:05;;;;;;;2.97;1.80;;;;;;;18.95;56.19;99590.31;5063461;28;20031;-76
2021/08/07 06:20:31;;;;;;;3.35;1.77;;;;;;;19.00;54.70;99591.81;5063509;28;20017;-76
2021/08/07 06:22:56;;;;;;;4.00;1.67;;;;;;;18.90;55.43;99587.09;5065161;28;20021;-76
2021/08/07 06:25:22;;;;;;;2.78;1.60;;;;;;;18.91;55.00;99580.06;5065284;28;20028;-74
2021/08/07 06:27:53;;;;;;;2.13;1.48;;;;;;;18.91;54.62;99583.53;5063203;28;20028;-77
2021/08/07 06:30:19;;;;;;;2.67;1.67;;;;;;;18.76;54.96;99585.25;5063408;28;20017;-75
2021/08/07 06:32:44;;;;;;;2.53;1.40;;;;;;;18.69;55.05;99578.66;5063273;28;20040;-76
2021/08/07 06:35:10;;;;;;;2.00;1.50;;;;;;;18.64;55.09;99578.06;5063107;28;20028;-76
2021/08/07 06:37:35;;;;;;;4.10;1.60;;;;;;;18.56;55.38;99568.78;5064209;28;20032;-76
2021/08/07 06:40:00;;;;;;;2.88;1.80;;;;;;;18.61;55.57;99576.41;5064477;28;20072;-76
2021/08/07 06:42:26;;;;;;;3.20;1.58;;;;;;;18.60;55.33;99571.25;5064565;28;20103;-76
2021/08/07 06:44:51;;;;;;;2.95;1.65;;;;;;;18.52;55.66;99567.28;5062771;28;20014;-73
2021/08/07 06:47:17;;;;;;;3.55;1.50;;;;;;;18.57;55.40;99575.78;5064055;28;20496;-76
2021/08/07 06:49:42;;;;;;;2.83;1.48;;;;;;;18.66;55.76;99570.91;5064199;28;20485;-74
2021/08/07 06:52:08;;;;;;;3.53;1.80;;;;;;;18.90;55.16;99575.72;5064000;28;20028;-75
2021/08/07 06:54:33;;;;;;;2.72;1.58;;;;;;;18.95;55.10;99571.06;5063769;28;20060;-75
2021/08/07 06:56:58;;;;;;;2.47;1.63;;;;;;;18.99;54.84;99562.06;5062445;28;20131;-74
2021/08/07 06:59:24;;;;;;;4.10;1.88;;;;;;;19.00;54.88;99549.75;5063311;28;20020;-75
2021/08/07 07:01:49;;;;;;;2.85;1.65;;;;;;;18.97;55.47;99553.41;5063101;28;20096;-75
2021/08/07 07:04:15;;;;;;;4.05;1.90;;;;;;;18.97;55.46;99563.94;5063772;28;20055;-77
2021/08/07 07:06:40;;;;;;;6.50;2.20;;;;;;;18.92;55.37;99558.94;5063770;28;20016;-75
2021/08/07 07:09:06;;;;;;;2.83;1.58;;;;;;;18.84;55.25;99563.78;5062603;28;20029;-76
2021/08/07 07:11:31;;;;;;;2.58;1.83;;;;;;;18.72;55.74;99561.84;5062248;28;20044;-75
2021/08/07 07:13:57;;;;;;;2.42;1.55;;;;;;;18.60;56.28;99563.38;5063879;28;20021;-76
2021/08/07 07:16:22;;;;;;;3.08;1.80;;;;;;;18.71;56.50;99568.88;5063617;28;20021;-75
2021/08/07 07:18:48;;;;;;;4.80;1.95;;;;;;;18.75;56.10;99565.16;5063753;28;20465;-77
2021/08/07 07:21:13;;;;;;;4.45;1.75;;;;;;;18.69;56.22;99558.44;5062202;28;20296;-75
2021/08/07 07:23:39;;;;;;;2.33;1.60;;;;;;;18.66;56.39;99563.03;5063767;28;20029;-75
2021/08/07 07:26:04;;;;;;;3.53;1.88;;;;;;;18.67;56.72;99562.13;5063360;28;20017;-74
2021/08/07 07:28:30;;;;;;;2.20;1.80;;;;;;;18.73;56.58;99561.75;5062071;28;20025;-77
2021/08/07 07:30:55;;;;;;;3.25;1.75;;;;;;;18.76;56.38;99545.81;5062301;28;20021;-77
2021/08/07 07:33:21;;;;;;;3.47;1.65;;;;;;;18.89;56.37;99555.63;5062050;28;20035;-78
2021/08/07 07:35:46;;;;;;;3.95;2.10;;;;;;;18.94;56.44;99553.59;5063149;28;20535;-73
2021/08/07 07:38:11;;;;;;;2.78;2.05;;;;;;;19.07;56.42;99567.72;5063381;28;20105;-75
2021/08/07 07:40:37;;;;;;;4.00;1.70;;;;;;;19.09;55.77;99559.75;5061924;28;20020;-73
2021/08/07 07:43:03;;;;;;;2.40;1.60;;;;;;;19.06;56.02;99557.28;5063453;28;20028;-75
2021/08/07 07:45:28;;;;;;;3.65;1.83;;;;;;;19.02;56.24;99556.63;5063128;28;20024;-74
2021/08/07 07:47:54;;;;;;;6.07;2.10;;;;;;;19.07;56.40;99561.63;5061750;28;20051;-67
2021/08/07 07:50:19;;;;;;;2.83;1.75;;;;;;;19.15;55.96;99561.22;5061747;28;20020;-67
2021/08/07 07:52:44;;;;;;;5.15;1.92;;;;;;;19.16;55.72;99553.22;5063184;28;20028;-68
2021/08/07 07:55:10;;;;;;;2.50;1.85;;;;;;;19.25;55.93;99553.63;5061903;28;20033;-66
2021/08/07 07:57:36;;;;;;;2.38;1.60;;;;;;;19.70;55.65;99548.34;5063041;28;20385;-72
2021/08/07 08:00:04;;;;;;;3.10;1.83;;;;;;;20.49;54.33;99534.75;5063192;28;20041;-68
2021/08/07 08:02:29;;;;;;;2.70;1.60;;;;;;;21.27;52.49;99540.28;5063024;28;20025;-70
2021/08/07 08:04:54;;;;;;;2.60;1.60;;;;;;;21.77;50.34;99536.09;5063203;28;20025;-67
2021/08/07 08:07:20;;;;;;;2.65;1.70;;;;;;;21.83;50.01;99537.44;5061801;28;20045;-73
2021/08/07 08:09:45;;;;;;;3.58;1.83;;;;;;;21.94;49.26;99537.53;5063294;28;20024;-69
2021/08/07 08:12:11;;;;;;;3.08;1.55;;;;;;;21.92;48.91;99535.00;5065218;28;20555;-73
2021/08/07 08:14:36;;;;;;;3.65;1.63;;;;;;;21.94;49.70;99529.63;5067098;28;20021;-67
2021/08/07 08:17:02;;;;;;;2.35;1.60;;;;;;;22.14;48.46;99527.38;5066821;28;20051;-74
2021/08/07 08:19:27;;;;;;;3.17;1.83;;;;;;;22.20;48.40;99537.50;5066927;28;20050;-66
2021/08/07 08:21:52;;;;;;;2.53;1.63;;;;;;;22.38;47.89;99523.91;5065755;28;20100;-65
2021/08/07 08:24:18;;;;;;;3.85;1.65;;;;;;;22.37;47.53;99520.41;5066980;28;20025;-65
2021/08/07 08:26:43;;;;;;;2.95;1.80;;;;;;;22.07;47.50;99524.31;5066792;28;20102;-65
2021/08/07 08:29:08;;;;;;;3.05;1.67;;;;;;;21.76;48.68;99513.22;5066723;28;20471;-67
2021/08/07 08:31:34;;;;;;;5.38;2.00;;;;;;;;;;5066352;28;20056;-66
2021/08/07 08:33:59;;;;;;;2.42;1.70;;;;;;;21.75;48.65;99509.75;5065079;28;20550;-66
2021/08/07 08:36:25;;;;;;;4.57;1.60;;;;;;;21.92;48.65;99508.59;5066470;28;20029;-69
2021/08/07 08:38:50;;;;;;;3.85;1.60;;;;;;;22.00;48.32;99515.97;5065245;28;20045;-69
2021/08/07 08:41:16;;;;;;;2.30;1.30;;;;;;;22.54;48.26;99510.41;5065102;28;20159;-67
2021/08/07 08:43:44;;;;;;;4.00;1.50;;;;;;;23.15;45.93;99517.41;5066768;28;20414;-67
2021/08/07 08:46:10;;;;;;;3.88;1.15;;;;;;;23.67;44.35;99500.28;5066447;28;20025;-67
2021/08/07 08:48:37;;;;;;;4.07;1.80;;;;;;;23.78;44.37;99515.34;5065108;28;20024;-69
2021/08/07 08:51:08;;;;;;;6.60;1.83;;;;;;;23.57;44.07;99502.81;5066129;28;20385;-68
2021/08/07 08:53:38;;;;;;;3.85;1.60;;;;;;;23.12;44.96;99498.25;5065526;28;20051;-69
2021/08/07 08:56:04;;;;;;;2.58;1.67;;;;;;;22.63;46.13;99511.56;5066070;28;20024;-65
2021/08/07 08:58:33;;;;;;;3.40;1.55;;;;;;;22.32;46.29;99498.75;5066271;28;20084;-66
2021/08/07 09:00:58;;;;;;;4.63;1.77;;;;;;;22.12;47.21;99495.78;5066352;28;20052;-66
2021/08/07 09:03:23;;;;;;;2.95;1.48;;;;;;;22.07;47.15;99494.38;5064788;28;20385;-67
2021/08/07 09:05:49;;;;;;;2.67;1.75;;;;;;;21.93;46.12;99504.16;5066012;28;20025;-68
2021/08/07 09:08:17;;;;;;;3.40;2.00;;;;;;;21.49;47.16;99507.13;5065268;28;20063;-66
2021/08/07 09:10:43;;;;;;;2.25;1.20;;;;;;;21.21;47.39;99509.03;5065964;28;20025;-68
2021/08/07 09:13:20;;;;;;;2.50;1.75;;;;;;;21.03;47.90;99511.94;5065857;28;20464;-66
2021/08/07 09:15:46;;;;;;;3.47;1.67;;;;;;;20.90;48.39;99498.69;5065831;28;20033;-65
2021/08/07 09:18:15;;;;;;;2.63;1.50;;;;;;;20.89;48.69;99509.34;5064558;28;20452;-66
2021/08/07 09:20:46;;;;;;;4.95;1.60;;;;;;;20.88;48.99;99497.94;5065798;28;20035;-65
2021/08/07 09:23:12;;;;;;;2.30;1.50;;;;;;;20.91;49.09;99502.19;5065052;28;20046;-66
2021/08/07 09:25:40;;;;;;;2.53;1.70;;;;;;;20.89;48.93;99499.66;5065550;28;20027;-66
2021/08/07 09:28:06;;;;;;;5.45;1.52;;;;;;;20.92;49.25;99502.13;5065762;28;20043;-66
2021/08/07 09:30:37;;;;;;;4.20;1.60;;;;;;;21.08;49.03;99508.13;5065977;28;20529;-66
2021/08/07 09:33:07;;;;;;;3.55;1.70;;;;;;;21.22;48.61;99499.28;5065999;28;20398;-66
2021/08/07 09:35:37;;;;;;;2.70;1.55;;;;;;;21.47;48.75;99511.66;5065895;28;20037;-66
2021/08/07 09:38:19;;;;;;;5.63;1.70;;;;;;;21.52;46.71;99498.97;5065571;28;20063;-66
2021/08/07 09:40:49;;;;;;;;;;;;;;;21.60;46.95;99487.06;5066029;28;20547;-64
2021/08/07 09:43:18;;;;;;;3.45;1.73;;;;;;;21.65;47.13;99487.56;5064197;28;19908;-66
2021/08/07 09:45:56;;;;;;;3.60;1.40;;;;;;;21.81;44.04;99489.16;5065394;28;20025;-66
2021/08/07 09:48:32;;;;;;;2.60;1.55;;;;;;;21.66;44.57;99491.91;5065501;28;20461;-66
2021/08/07 09:50:58;;;;;;;2.33;1.42;;;;;;;21.68;43.73;99492.63;5064169;28;20025;-66
2021/08/07 09:53:27;;;;;;;2.70;1.60;;;;;;;21.64;44.06;99484.09;5065266;28;20028;-66
2021/08/07 09:56:07;;;;;;;2.47;1.63;;;;;;;21.77;43.99;99486.72;5063576;28;20039;-66
2021/08/07 09:58:33;;;;;;;2.00;1.33;;;;;;;21.77;44.35;99486.72;5065331;28;20021;-66
2021/08/07 10:00:59;;;;;;;2.45;1.52;;;;;;;21.85;43.76;99486.22;5065154;28;20079;-65
2021/08/07 10:03:33;;;;;;;4.00;1.58;;;;;;;21.82;44.72;99488.22;5065193;28;20036;-67
2021/08/07 10:06:18;;;;;;;2.42;1.35;;;;;;;21.91;43.31;99482.28;5065172;28;20055;-66
2021/08/07 10:08:49;;;;;;;2.20;1.52;;;;;;;21.70;44.05;99484.59;5063651;28;20035;-66
2021/08/07 10:11:15;;;;;;;3.63;1.40;;;;;;;21.59;44.39;99475.66;5064879;28;20036;-65
2021/08/07 10:13:41;;;;;;;2.55;1.60;;;;;;;21.65;44.68;99474.34;5065085;28;20024;-66
2021/08/07 10:16:07;;;;;;;3.17;1.60;;;;;;;21.84;44.22;99470.47;5064761;28;20256;-66
2021/08/07 10:18:33;;;;;;;3.33;1.63;;;;;;;22.12;43.93;99471.97;5064893;28;20040;-66
2021/08/07 10:21:03;;;;;;;1.83;1.30;;;;;;;22.56;43.58;99473.28;5064999;28;20032;-66
2021/08/07 10:23:31;;;;;;;1.83;1.20;;;;;;;23.19;40.69;99475.66;5064557;28;20044;-66
2021/08/07 10:25:56;;;;;;;3.28;1.27;;;;;;;23.11;39.79;99472.75;5064589;28;20354;-66
2021/08/07 10:28:23;;;;;;;3.22;1.42;;;;;;;22.72;40.65;99471.19;5064577;28;20433;-66
2021/08/07 10:30:50;;;;;;;1.90;1.40;;;;;;;22.25;41.79;99465.78;5064502;28;20033;-66
2021/08/07 10:33:16;;;;;;;4.95;1.58;;;;;;;22.08;41.88;99465.22;5064614;28;20028;-66
2021/08/07 10:35:42;;;;;;;2.97;1.20;;;;;;;22.04;42.09;99459.28;5064487;28;20031;-65
2021/08/07 10:38:08;;;;;;;2.95;1.40;;;;;;;22.20;43.22;99463.50;5063024;28;20112;-65
2021/08/07 10:40:33;;;;;;;2.72;1.35;;;;;;;22.52;43.13;99459.44;5064336;28;20047;-64
2021/08/07 10:42:59;;;;;;;3.47;1.55;;;;;;;22.79;42.52;99458.34;5064326;28;20029;-67
2021/08/07 10:45:25;;;;;;;3.08;1.40;;;;;;;22.92;42.52;99460.94;5064364;28;20017;-66
2021/08/07 10:47:51;;;;;;;4.28;1.77;;;;;;;22.99;42.87;99451.56;5064117;28;20024;-66
2021/08/07 10:50:28;;;;;;;3.25;1.20;;;;;;;23.09;42.85;99445.53;5064070;28;20025;-66
2021/08/07 10:52:55;;;;;;;4.13;1.67;;;;;;;23.22;42.35;99451.59;5064147;28;20537;-67
2021/08/07 10:55:58;;;;;;;7.97;1.55;;;;;;;23.15;42.04;99453.00;5063968;28;20377;-66
2021/08/07 10:58:42;;;;;;;2.78;1.63;;;;;;;22.89;42.61;99442.63;5063873;28;20036;-66
2021/08/07 11:01:19;;;;;;;2.20;1.58;;;;;;;22.97;42.42;99447.34;5063940;28;20021;-66
2021/08/07 11:03:47;;;;;;;3.13;1.50;;;;;;;23.04;41.87;99440.59;5064024;28;20362;-66
2021/08/07 11:06:13;;;;;;;4.32;1.10;;;;;;;23.12;42.36;99450.59;5064288;28;20199;-66
2021/08/07 11:08:38;;;;;;;1.92;1.23;;;;;;;23.22;42.30;99438.34;5063874;28;20037;-66
2021/08/07 11:11:39;;;;;;;2.00;1.50;;;;;;;23.29;41.63;99438.72;5063722;28;20036;-66
2021/08/07 11:14:26;;;;;;;2.20;1.50;;;;;;;23.32;41.37;99442.94;5041124;28;20026;-66
2021/08/07 11:17:07;;;;;;;2.97;1.25;;;;;;;23.42;41.02;99435.16;5041076;28;20042;-67
2021/08/07 11:20:06;;;;;;;4.50;1.25;;;;;;;23.51;41.58;99422.00;5041214;28;20033;-67
2021/08/07 11:22:31;;;;;;;5.55;1.88;;;;;;;23.54;41.15;99426.22;5040928;28;20037;-66
2021/08/07 11:25:01;;;;;;;3.17;1.27;;;;;;;23.55;40.71;99432.38;5041061;28;20029;-66
2021/08/07 11:27:48;;;;;;;2.63;1.60;;;;;;;23.55;40.89;99432.38;5041020;28;20108;-66
2021/08/07 11:30:37;;;;;;;2.78;1.33;;;;;;;23.40;40.78;99429.97;5041268;28;20317;-66
2021/08/07 11:33:03;;;;;;;1.55;1.20;;;;;;;23.20;41.51;99428.84;5041091;28;20033;-66
2021/08/07 11:35:31;;;;;;;2.42;1.42;;;;;;;23.13;41.03;99433.78;5040797;28;20037;-66